sensor_id;sensor_type;location;lat;lon;timestamp;temperature;humidity
75786;DHT22;64402;44.708;37.644;2023-07-29T00:01:53;19.54;75.93
75786;DHT22;64402;44.708;37.644;2023-07-29T00:04:20;19.55;75.09
75786;DHT22;64402;44.708;37.644;2023-07-29T00:06:46;19.54;74.68
75786;DHT22;64402;44.708;37.644;2023-07-29T00:09:12;19.55;75.23
75786;DHT22;64402;44.708;37.644;2023-07-29T00:11:38;19.52;76.72
75786;DHT22;64402;44.708;37.644;2023-07-29T00:14:04;19.41;77.15
75786;DHT22;64402;44.708;37.644;2023-07-29T00:16:30;19.32;77.81
75786;DHT22;64402;44.708;37.644;2023-07-29T00:18:57;19.26;78.16
75786;DHT22;64402;44.708;37.644;2023-07-29T00:21:23;19.20;78.42
75786;DHT22;64402;44.708;37.644;2023-07-29T00:23:49;19.15;79.17
75786;DHT22;64402;44.708;37.644;2023-07-29T00:26:15;19.08;79.46
75786;DHT22;64402;44.708;37.644;2023-07-29T00:28:42;18.99;79.99
75786;DHT22;64402;44.708;37.644;2023-07-29T00:31:08;18.86;80.07
75786;DHT22;64402;44.708;37.644;2023-07-29T00:33:34;18.85;80.47
75786;DHT22;64402;44.708;37.644;2023-07-29T00:36:00;18.74;80.65
75786;DHT22;64402;44.708;37.644;2023-07-29T00:38:27;18.78;80.79
75786;DHT22;64402;44.708;37.644;2023-07-29T00:40:54;18.83;81.02
75786;DHT22;64402;44.708;37.644;2023-07-29T00:43:20;18.81;80.66
75786;DHT22;64402;44.708;37.644;2023-07-29T00:45:46;18.73;80.81
75786;DHT22;64402;44.708;37.644;2023-07-29T00:48:13;18.78;80.78
75786;DHT22;64402;44.708;37.644;2023-07-29T00:50:40;18.84;80.92
75786;DHT22;64402;44.708;37.644;2023-07-29T00:53:06;18.82;81.05
75786;DHT22;64402;44.708;37.644;2023-07-29T00:55:32;18.77;80.91
75786;DHT22;64402;44.708;37.644;2023-07-29T00:57:59;18.68;81.10
75786;DHT22;64402;44.708;37.644;2023-07-29T01:00:25;18.67;81.27
75786;DHT22;64402;44.708;37.644;2023-07-29T01:02:52;18.63;81.73
75786;DHT22;64402;44.708;37.644;2023-07-29T01:05:21;18.57;81.70
75786;DHT22;64402;44.708;37.644;2023-07-29T01:08:05;18.55;81.59
75786;DHT22;64402;44.708;37.644;2023-07-29T01:13:50;18.47;82.23
75786;DHT22;64402;44.708;37.644;2023-07-29T01:16:36;18.41;82.82
75786;DHT22;64402;44.708;37.644;2023-07-29T01:19:06;18.35;82.60
75786;DHT22;64402;44.708;37.644;2023-07-29T01:21:35;18.32;82.47
75786;DHT22;64402;44.708;37.644;2023-07-29T01:24:03;18.32;83.15
75786;DHT22;64402;44.708;37.644;2023-07-29T01:26:29;18.20;82.77
75786;DHT22;64402;44.708;37.644;2023-07-29T01:28:56;18.22;83.04
75786;DHT22;64402;44.708;37.644;2023-07-29T01:31:33;18.20;83.65
75786;DHT22;64402;44.708;37.644;2023-07-29T01:37:19;18.24;83.35
75786;DHT22;64402;44.708;37.644;2023-07-29T01:39:48;18.19;83.52
75786;DHT22;64402;44.708;37.644;2023-07-29T01:42:15;18.14;83.38
75786;DHT22;64402;44.708;37.644;2023-07-29T01:44:42;18.13;83.20
75786;DHT22;64402;44.708;37.644;2023-07-29T01:47:08;18.08;83.58
75786;DHT22;64402;44.708;37.644;2023-07-29T01:49:34;18.02;83.81
75786;DHT22;64402;44.708;37.644;2023-07-29T01:52:00;18.05;83.78
75786;DHT22;64402;44.708;37.644;2023-07-29T01:54:27;18.06;83.65
75786;DHT22;64402;44.708;37.644;2023-07-29T01:56:53;18.05;83.29
75786;DHT22;64402;44.708;37.644;2023-07-29T01:59:19;18.06;83.05
75786;DHT22;64402;44.708;37.644;2023-07-29T02:01:45;18.08;83.45
75786;DHT22;64402;44.708;37.644;2023-07-29T02:04:12;18.10;83.75
75786;DHT22;64402;44.708;37.644;2023-07-29T02:06:38;18.06;83.90
75786;DHT22;64402;44.708;37.644;2023-07-29T02:09:04;18.03;84.16
75786;DHT22;64402;44.708;37.644;2023-07-29T02:11:30;17.95;83.82
75786;DHT22;64402;44.708;37.644;2023-07-29T02:13:57;17.85;83.54
75786;DHT22;64402;44.708;37.644;2023-07-29T02:16:23;17.79;83.36
75786;DHT22;64402;44.708;37.644;2023-07-29T02:18:50;17.76;83.86
75786;DHT22;64402;44.708;37.644;2023-07-29T02:21:16;17.76;84.01
75786;DHT22;64402;44.708;37.644;2023-07-29T02:23:42;17.78;84.61
75786;DHT22;64402;44.708;37.644;2023-07-29T02:26:08;17.74;84.25
75786;DHT22;64402;44.708;37.644;2023-07-29T02:28:35;17.73;84.04
75786;DHT22;64402;44.708;37.644;2023-07-29T02:31:17;17.72;84.11
75786;DHT22;64402;44.708;37.644;2023-07-29T02:33:44;17.68;84.48
75786;DHT22;64402;44.708;37.644;2023-07-29T02:36:11;17.67;84.40
75786;DHT22;64402;44.708;37.644;2023-07-29T02:38:38;17.69;84.79
75786;DHT22;64402;44.708;37.644;2023-07-29T02:41:04;17.66;84.00
75786;DHT22;64402;44.708;37.644;2023-07-29T02:43:30;17.70;84.16
75786;DHT22;64402;44.708;37.644;2023-07-29T02:45:56;17.75;84.01
75786;DHT22;64402;44.708;37.644;2023-07-29T02:48:22;17.80;84.61
75786;DHT22;64402;44.708;37.644;2023-07-29T02:50:48;17.75;83.65
75786;DHT22;64402;44.708;37.644;2023-07-29T02:53:14;17.81;83.78
75786;DHT22;64402;44.708;37.644;2023-07-29T02:55:41;17.88;84.20
75786;DHT22;64402;44.708;37.644;2023-07-29T02:58:07;17.95;84.23
75786;DHT22;64402;44.708;37.644;2023-07-29T03:00:33;17.96;83.46
75786;DHT22;64402;44.708;37.644;2023-07-29T03:02:59;17.99;83.47
75786;DHT22;64402;44.708;37.644;2023-07-29T03:05:29;18.05;83.12
75786;DHT22;64402;44.708;37.644;2023-07-29T03:07:55;18.15;83.32
75786;DHT22;64402;44.708;37.644;2023-07-29T03:10:21;18.10;82.77
75786;DHT22;64402;44.708;37.644;2023-07-29T03:12:48;18.13;83.54
75786;DHT22;64402;44.708;37.644;2023-07-29T03:15:14;18.12;82.75
75786;DHT22;64402;44.708;37.644;2023-07-29T03:17:40;18.10;83.13
75786;DHT22;64402;44.708;37.644;2023-07-29T03:20:07;18.22;83.43
75786;DHT22;64402;44.708;37.644;2023-07-29T03:22:33;18.23;83.16
75786;DHT22;64402;44.708;37.644;2023-07-29T03:24:59;18.33;83.07
75786;DHT22;64402;44.708;37.644;2023-07-29T03:27:25;18.46;83.18
75786;DHT22;64402;44.708;37.644;2023-07-29T03:29:52;18.57;84.00
75786;DHT22;64402;44.708;37.644;2023-07-29T03:32:18;18.63;83.34
75786;DHT22;64402;44.708;37.644;2023-07-29T03:34:44;18.71;82.87
75786;DHT22;64402;44.708;37.644;2023-07-29T03:37:10;18.73;82.83
75786;DHT22;64402;44.708;37.644;2023-07-29T03:39:36;18.82;82.65
75786;DHT22;64402;44.708;37.644;2023-07-29T03:42:02;18.86;82.62
75786;DHT22;64402;44.708;37.644;2023-07-29T03:44:29;18.97;82.41
75786;DHT22;64402;44.708;37.644;2023-07-29T03:46:56;19.09;82.81
75786;DHT22;64402;44.708;37.644;2023-07-29T03:49:23;19.24;82.21
75786;DHT22;64402;44.708;37.644;2023-07-29T03:51:49;19.37;82.10
75786;DHT22;64402;44.708;37.644;2023-07-29T03:54:15;19.51;81.93
75786;DHT22;64402;44.708;37.644;2023-07-29T03:56:41;19.65;81.09
75786;DHT22;64402;44.708;37.644;2023-07-29T03:59:07;19.76;80.70
75786;DHT22;64402;44.708;37.644;2023-07-29T04:01:33;19.89;79.50
75786;DHT22;64402;44.708;37.644;2023-07-29T04:03:59;20.02;78.82
75786;DHT22;64402;44.708;37.644;2023-07-29T04:06:25;20.15;78.08
75786;DHT22;64402;44.708;37.644;2023-07-29T04:08:52;20.31;79.69
75786;DHT22;64402;44.708;37.644;2023-07-29T04:11:18;20.41;77.54
75786;DHT22;64402;44.708;37.644;2023-07-29T04:13:44;20.54;76.72
75786;DHT22;64402;44.708;37.644;2023-07-29T04:16:10;20.71;74.67
75786;DHT22;64402;44.708;37.644;2023-07-29T04:18:36;20.85;74.19
75786;DHT22;64402;44.708;37.644;2023-07-29T04:21:02;20.95;74.99
75786;DHT22;64402;44.708;37.644;2023-07-29T04:23:29;21.04;73.86
75786;DHT22;64402;44.708;37.644;2023-07-29T04:25:55;21.17;72.43
75786;DHT22;64402;44.708;37.644;2023-07-29T04:28:21;21.37;71.00
75786;DHT22;64402;44.708;37.644;2023-07-29T04:30:47;21.57;70.72
75786;DHT22;64402;44.708;37.644;2023-07-29T04:33:13;21.67;71.74
75786;DHT22;64402;44.708;37.644;2023-07-29T04:35:39;21.78;69.50
75786;DHT22;64402;44.708;37.644;2023-07-29T04:38:05;21.88;70.30
75786;DHT22;64402;44.708;37.644;2023-07-29T04:40:34;22.04;68.37
75786;DHT22;64402;44.708;37.644;2023-07-29T04:43:01;22.16;67.88
75786;DHT22;64402;44.708;37.644;2023-07-29T04:45:30;22.22;68.13
75786;DHT22;64402;44.708;37.644;2023-07-29T04:47:57;22.34;66.04
75786;DHT22;64402;44.708;37.644;2023-07-29T04:50:24;22.44;66.57
75786;DHT22;64402;44.708;37.644;2023-07-29T04:52:50;22.53;66.14
75786;DHT22;64402;44.708;37.644;2023-07-29T04:55:16;22.64;66.52
75786;DHT22;64402;44.708;37.644;2023-07-29T04:57:42;22.71;64.74
75786;DHT22;64402;44.708;37.644;2023-07-29T05:00:09;22.80;62.98
75786;DHT22;64402;44.708;37.644;2023-07-29T05:02:35;22.84;63.17
75786;DHT22;64402;44.708;37.644;2023-07-29T05:05:01;22.88;63.97
75786;DHT22;64402;44.708;37.644;2023-07-29T05:07:28;22.96;63.35
75786;DHT22;64402;44.708;37.644;2023-07-29T05:09:54;23.10;61.75
75786;DHT22;64402;44.708;37.644;2023-07-29T05:12:20;23.17;61.57
75786;DHT22;64402;44.708;37.644;2023-07-29T05:14:46;23.22;61.32
75786;DHT22;64402;44.708;37.644;2023-07-29T05:17:13;23.27;60.18
75786;DHT22;64402;44.708;37.644;2023-07-29T05:19:39;23.34;61.83
75786;DHT22;64402;44.708;37.644;2023-07-29T05:22:05;23.45;61.83
75786;DHT22;64402;44.708;37.644;2023-07-29T05:24:32;23.53;60.82
75786;DHT22;64402;44.708;37.644;2023-07-29T05:26:58;23.56;59.26
75786;DHT22;64402;44.708;37.644;2023-07-29T05:29:24;23.56;60.31
75786;DHT22;64402;44.708;37.644;2023-07-29T05:31:50;23.57;60.15
75786;DHT22;64402;44.708;37.644;2023-07-29T05:34:16;23.60;59.16
75786;DHT22;64402;44.708;37.644;2023-07-29T05:36:43;23.66;59.16
75786;DHT22;64402;44.708;37.644;2023-07-29T05:39:09;23.67;58.27
75786;DHT22;64402;44.708;37.644;2023-07-29T05:41:35;23.73;59.11
75786;DHT22;64402;44.708;37.644;2023-07-29T05:44:01;23.79;58.19
75786;DHT22;64402;44.708;37.644;2023-07-29T05:46:27;23.87;58.13
75786;DHT22;64402;44.708;37.644;2023-07-29T05:48:53;23.99;58.03
75786;DHT22;64402;44.708;37.644;2023-07-29T05:51:20;23.91;58.05
75786;DHT22;64402;44.708;37.644;2023-07-29T05:53:46;24.02;58.06
75786;DHT22;64402;44.708;37.644;2023-07-29T05:56:12;24.14;57.18
75786;DHT22;64402;44.708;37.644;2023-07-29T05:58:38;24.39;57.02
75786;DHT22;64402;44.708;37.644;2023-07-29T06:01:04;24.60;56.44
75786;DHT22;64402;44.708;37.644;2023-07-29T06:03:30;24.78;55.80
75786;DHT22;64402;44.708;37.644;2023-07-29T06:05:56;24.72;54.58
75786;DHT22;64402;44.708;37.644;2023-07-29T06:08:23;24.64;56.81
75786;DHT22;64402;44.708;37.644;2023-07-29T06:10:49;24.60;56.77
75786;DHT22;64402;44.708;37.644;2023-07-29T06:13:15;24.44;57.16
75786;DHT22;64402;44.708;37.644;2023-07-29T06:15:42;24.12;57.85
75786;DHT22;64402;44.708;37.644;2023-07-29T06:18:08;23.97;57.16
75786;DHT22;64402;44.708;37.644;2023-07-29T06:20:34;24.12;58.48
75786;DHT22;64402;44.708;37.644;2023-07-29T06:23:00;24.31;58.45
75786;DHT22;64402;44.708;37.644;2023-07-29T06:25:27;24.48;57.42
75786;DHT22;64402;44.708;37.644;2023-07-29T06:27:54;24.56;54.17
75786;DHT22;64402;44.708;37.644;2023-07-29T06:30:20;24.73;55.64
75786;DHT22;64402;44.708;37.644;2023-07-29T06:32:46;24.83;54.81
75786;DHT22;64402;44.708;37.644;2023-07-29T06:35:12;24.87;54.93
75786;DHT22;64402;44.708;37.644;2023-07-29T06:37:38;24.75;54.03
75786;DHT22;64402;44.708;37.644;2023-07-29T06:40:05;24.85;54.46
75786;DHT22;64402;44.708;37.644;2023-07-29T06:42:31;24.98;52.68
75786;DHT22;64402;44.708;37.644;2023-07-29T06:44:57;24.99;52.88
75786;DHT22;64402;44.708;37.644;2023-07-29T06:47:23;25.20;54.36
75786;DHT22;64402;44.708;37.644;2023-07-29T06:49:50;25.45;51.36
75786;DHT22;64402;44.708;37.644;2023-07-29T06:52:16;25.46;51.29
75786;DHT22;64402;44.708;37.644;2023-07-29T06:54:42;25.53;51.88
75786;DHT22;64402;44.708;37.644;2023-07-29T06:57:08;25.60;49.59
75786;DHT22;64402;44.708;37.644;2023-07-29T06:59:34;25.72;49.30
75786;DHT22;64402;44.708;37.644;2023-07-29T07:02:01;25.78;48.51
75786;DHT22;64402;44.708;37.644;2023-07-29T07:04:27;26.01;49.12
75786;DHT22;64402;44.708;37.644;2023-07-29T07:06:54;26.32;48.02
75786;DHT22;64402;44.708;37.644;2023-07-29T07:09:20;26.69;48.47
75786;DHT22;64402;44.708;37.644;2023-07-29T07:11:46;26.66;47.65
75786;DHT22;64402;44.708;37.644;2023-07-29T07:14:12;26.64;45.86
75786;DHT22;64402;44.708;37.644;2023-07-29T07:16:39;26.76;45.90
75786;DHT22;64402;44.708;37.644;2023-07-29T07:19:05;26.79;45.78
75786;DHT22;64402;44.708;37.644;2023-07-29T07:21:32;26.64;48.16
75786;DHT22;64402;44.708;37.644;2023-07-29T07:23:58;26.45;49.63
75786;DHT22;64402;44.708;37.644;2023-07-29T07:26:24;26.13;50.08
75786;DHT22;64402;44.708;37.644;2023-07-29T07:28:51;26.19;47.63
75786;DHT22;64402;44.708;37.644;2023-07-29T07:31:17;26.26;43.35
75786;DHT22;64402;44.708;37.644;2023-07-29T07:33:44;26.42;41.42
75786;DHT22;64402;44.708;37.644;2023-07-29T07:36:10;26.64;44.09
75786;DHT22;64402;44.708;37.644;2023-07-29T07:38:36;26.91;42.66
75786;DHT22;64402;44.708;37.644;2023-07-29T07:41:03;27.12;44.04
75786;DHT22;64402;44.708;37.644;2023-07-29T07:43:29;26.86;44.69
75786;DHT22;64402;44.708;37.644;2023-07-29T07:45:59;26.49;45.79
75786;DHT22;64402;44.708;37.644;2023-07-29T07:48:26;26.03;45.28
75786;DHT22;64402;44.708;37.644;2023-07-29T07:50:53;25.82;47.44
75786;DHT22;64402;44.708;37.644;2023-07-29T07:53:19;25.98;47.14
75786;DHT22;64402;44.708;37.644;2023-07-29T07:55:48;26.48;47.86
75786;DHT22;64402;44.708;37.644;2023-07-29T07:58:14;26.69;47.38
75786;DHT22;64402;44.708;37.644;2023-07-29T08:00:40;26.87;47.16
75786;DHT22;64402;44.708;37.644;2023-07-29T08:03:06;27.24;45.72
75786;DHT22;64402;44.708;37.644;2023-07-29T08:05:33;27.25;46.47
75786;DHT22;64402;44.708;37.644;2023-07-29T08:07:59;27.09;45.82
75786;DHT22;64402;44.708;37.644;2023-07-29T08:10:25;26.83;45.49
75786;DHT22;64402;44.708;37.644;2023-07-29T08:12:51;26.47;48.35
75786;DHT22;64402;44.708;37.644;2023-07-29T08:15:18;26.25;48.59
75786;DHT22;64402;44.708;37.644;2023-07-29T08:17:45;26.71;48.92
75786;DHT22;64402;44.708;37.644;2023-07-29T08:20:11;26.62;49.99
75786;DHT22;64402;44.708;37.644;2023-07-29T08:22:37;26.98;48.21
75786;DHT22;64402;44.708;37.644;2023-07-29T08:25:04;27.28;46.04
75786;DHT22;64402;44.708;37.644;2023-07-29T08:27:30;27.26;47.17
75786;DHT22;64402;44.708;37.644;2023-07-29T08:29:57;27.38;46.53
75786;DHT22;64402;44.708;37.644;2023-07-29T08:32:23;27.42;44.32
75786;DHT22;64402;44.708;37.644;2023-07-29T08:34:49;27.08;45.46
75786;DHT22;64402;44.708;37.644;2023-07-29T08:37:15;26.66;47.39
75786;DHT22;64402;44.708;37.644;2023-07-29T08:39:42;26.66;47.86
75786;DHT22;64402;44.708;37.644;2023-07-29T08:42:11;26.55;49.25
75786;DHT22;64402;44.708;37.644;2023-07-29T08:44:42;26.49;48.72
75786;DHT22;64402;44.708;37.644;2023-07-29T08:47:09;26.54;45.61
75786;DHT22;64402;44.708;37.644;2023-07-29T08:49:36;26.55;45.05
75786;DHT22;64402;44.708;37.644;2023-07-29T08:52:04;27.00;44.70
75786;DHT22;64402;44.708;37.644;2023-07-29T08:54:31;27.22;43.61
75786;DHT22;64402;44.708;37.644;2023-07-29T08:56:57;27.73;42.89
75786;DHT22;64402;44.708;37.644;2023-07-29T08:59:24;28.08;42.77
75786;DHT22;64402;44.708;37.644;2023-07-29T09:01:51;27.84;43.41
75786;DHT22;64402;44.708;37.644;2023-07-29T09:04:21;30.11;38.27
75786;DHT22;64402;44.708;37.644;2023-07-29T09:06:50;29.37;37.14
75786;DHT22;64402;44.708;37.644;2023-07-29T09:09:17;30.81;36.03
75786;DHT22;64402;44.708;37.644;2023-07-29T09:11:43;31.93;32.70
75786;DHT22;64402;44.708;37.644;2023-07-29T09:14:10;32.30;32.70
75786;DHT22;64402;44.708;37.644;2023-07-29T09:16:37;33.67;27.16
75786;DHT22;64402;44.708;37.644;2023-07-29T09:19:04;34.38;27.50
75786;DHT22;64402;44.708;37.644;2023-07-29T09:21:31;34.78;24.92
75786;DHT22;64402;44.708;37.644;2023-07-29T09:24:02;33.90;27.28
75786;DHT22;64402;44.708;37.644;2023-07-29T09:26:33;34.08;28.27
75786;DHT22;64402;44.708;37.644;2023-07-29T09:28:59;34.96;26.07
75786;DHT22;64402;44.708;37.644;2023-07-29T09:31:26;35.37;23.63
75786;DHT22;64402;44.708;37.644;2023-07-29T09:34:01;34.91;23.17
75786;DHT22;64402;44.708;37.644;2023-07-29T09:36:29;36.36;23.08
75786;DHT22;64402;44.708;37.644;2023-07-29T09:38:56;37.28;22.56
75786;DHT22;64402;44.708;37.644;2023-07-29T09:41:24;37.60;22.28
75786;DHT22;64402;44.708;37.644;2023-07-29T09:44:04;37.12;22.69
75786;DHT22;64402;44.708;37.644;2023-07-29T09:46:36;37.78;21.89
75786;DHT22;64402;44.708;37.644;2023-07-29T09:49:04;37.61;21.53
75786;DHT22;64402;44.708;37.644;2023-07-29T09:51:30;37.30;22.13
75786;DHT22;64402;44.708;37.644;2023-07-29T09:53:57;36.03;22.37
75786;DHT22;64402;44.708;37.644;2023-07-29T09:56:25;36.52;22.03
75786;DHT22;64402;44.708;37.644;2023-07-29T09:58:57;38.38;19.33
75786;DHT22;64402;44.708;37.644;2023-07-29T10:01:24;37.17;21.42
75786;DHT22;64402;44.708;37.644;2023-07-29T10:03:50;35.29;22.64
75786;DHT22;64402;44.708;37.644;2023-07-29T10:06:17;35.10;22.27
75786;DHT22;64402;44.708;37.644;2023-07-29T10:08:45;33.80;23.10
75786;DHT22;64402;44.708;37.644;2023-07-29T10:11:11;34.54;22.42
75786;DHT22;64402;44.708;37.644;2023-07-29T10:13:38;34.37;23.63
75786;DHT22;64402;44.708;37.644;2023-07-29T10:16:05;33.82;24.04
75786;DHT22;64402;44.708;37.644;2023-07-29T10:18:33;31.87;26.92
75786;DHT22;64402;44.708;37.644;2023-07-29T10:21:00;33.33;24.91
75786;DHT22;64402;44.708;37.644;2023-07-29T10:23:27;32.25;25.79
75786;DHT22;64402;44.708;37.644;2023-07-29T10:26:01;30.78;28.59
75786;DHT22;64402;44.708;37.644;2023-07-29T10:28:30;31.92;26.84
75786;DHT22;64402;44.708;37.644;2023-07-29T10:30:58;30.81;29.21
75786;DHT22;64402;44.708;37.644;2023-07-29T10:33:25;30.50;31.04
75786;DHT22;64402;44.708;37.644;2023-07-29T10:35:53;32.85;26.15
75786;DHT22;64402;44.708;37.644;2023-07-29T10:38:22;35.66;21.79
75786;DHT22;64402;44.708;37.644;2023-07-29T10:40:55;37.56;19.28
75786;DHT22;64402;44.708;37.644;2023-07-29T10:45:51;37.95;18.85
75786;DHT22;64402;44.708;37.644;2023-07-29T10:54:04;33.60;27.08
75786;DHT22;64402;44.708;37.644;2023-07-29T10:56:36;35.14;24.00
75786;DHT22;64402;44.708;37.644;2023-07-29T11:01:42;37.13;21.31
75786;DHT22;64402;44.708;37.644;2023-07-29T11:12:45;38.91;19.04
75786;DHT22;64402;44.708;37.644;2023-07-29T11:15:26;37.94;20.29
75786;DHT22;64402;44.708;37.644;2023-07-29T11:17:57;37.44;19.43
75786;DHT22;64402;44.708;37.644;2023-07-29T11:20:31;37.45;21.41
75786;DHT22;64402;44.708;37.644;2023-07-29T11:23:01;37.69;21.79
75786;DHT22;64402;44.708;37.644;2023-07-29T11:25:29;37.63;20.51
75786;DHT22;64402;44.708;37.644;2023-07-29T11:27:58;37.49;20.75
75786;DHT22;64402;44.708;37.644;2023-07-29T11:30:25;36.97;21.03
75786;DHT22;64402;44.708;37.644;2023-07-29T11:32:55;37.01;20.05
75786;DHT22;64402;44.708;37.644;2023-07-29T11:35:22;37.35;20.65
75786;DHT22;64402;44.708;37.644;2023-07-29T11:37:50;38.10;20.09
75786;DHT22;64402;44.708;37.644;2023-07-29T11:40:18;38.94;18.47
75786;DHT22;64402;44.708;37.644;2023-07-29T11:42:46;39.09;17.65
75786;DHT22;64402;44.708;37.644;2023-07-29T11:45:13;38.69;17.93
75786;DHT22;64402;44.708;37.644;2023-07-29T11:47:40;38.48;19.25
75786;DHT22;64402;44.708;37.644;2023-07-29T11:50:09;37.77;19.15
75786;DHT22;64402;44.708;37.644;2023-07-29T11:52:37;37.89;19.88
75786;DHT22;64402;44.708;37.644;2023-07-29T11:55:04;38.26;20.25
75786;DHT22;64402;44.708;37.644;2023-07-29T11:57:33;38.79;18.86
75786;DHT22;64402;44.708;37.644;2023-07-29T12:00:02;38.86;19.86
75786;DHT22;64402;44.708;37.644;2023-07-29T12:02:30;38.62;20.43
75786;DHT22;64402;44.708;37.644;2023-07-29T12:04:57;38.44;20.48
75786;DHT22;64402;44.708;37.644;2023-07-29T12:07:23;38.03;21.44
75786;DHT22;64402;44.708;37.644;2023-07-29T12:09:50;38.53;20.12
75786;DHT22;64402;44.708;37.644;2023-07-29T12:12:16;38.64;20.12
75786;DHT22;64402;44.708;37.644;2023-07-29T12:14:43;39.21;18.56
75786;DHT22;64402;44.708;37.644;2023-07-29T12:17:09;39.19;18.68
75786;DHT22;64402;44.708;37.644;2023-07-29T12:19:38;39.02;19.79
75786;DHT22;64402;44.708;37.644;2023-07-29T12:22:07;39.14;20.01
75786;DHT22;64402;44.708;37.644;2023-07-29T12:24:36;39.06;18.64
75786;DHT22;64402;44.708;37.644;2023-07-29T12:27:03;38.48;19.14
75786;DHT22;64402;44.708;37.644;2023-07-29T12:29:30;38.29;19.07
75786;DHT22;64402;44.708;37.644;2023-07-29T12:32:01;37.88;22.63
75786;DHT22;64402;44.708;37.644;2023-07-29T12:34:29;38.11;22.67
75786;DHT22;64402;44.708;37.644;2023-07-29T12:36:56;37.78;22.50
75786;DHT22;64402;44.708;37.644;2023-07-29T12:39:27;39.08;19.10
75786;DHT22;64402;44.708;37.644;2023-07-29T12:41:55;39.34;17.20
75786;DHT22;64402;44.708;37.644;2023-07-29T12:44:29;38.71;18.01
75786;DHT22;64402;44.708;37.644;2023-07-29T12:46:55;38.41;19.84
75786;DHT22;64402;44.708;37.644;2023-07-29T12:49:22;39.07;19.33
75786;DHT22;64402;44.708;37.644;2023-07-29T12:51:48;38.84;16.40
75786;DHT22;64402;44.708;37.644;2023-07-29T12:54:14;38.12;18.99
75786;DHT22;64402;44.708;37.644;2023-07-29T12:56:40;38.07;18.82
75786;DHT22;64402;44.708;37.644;2023-07-29T12:59:07;38.25;18.37
75786;DHT22;64402;44.708;37.644;2023-07-29T13:01:33;38.79;18.76
75786;DHT22;64402;44.708;37.644;2023-07-29T13:03:59;38.65;17.11
75786;DHT22;64402;44.708;37.644;2023-07-29T13:06:25;38.08;16.47
75786;DHT22;64402;44.708;37.644;2023-07-29T13:08:51;38.21;19.04
75786;DHT22;64402;44.708;37.644;2023-07-29T13:11:18;38.62;18.15
75786;DHT22;64402;44.708;37.644;2023-07-29T13:13:44;39.48;18.22
75786;DHT22;64402;44.708;37.644;2023-07-29T13:16:12;39.73;17.44
75786;DHT22;64402;44.708;37.644;2023-07-29T13:18:39;38.83;18.73
75786;DHT22;64402;44.708;37.644;2023-07-29T13:21:06;39.03;18.97
75786;DHT22;64402;44.708;37.644;2023-07-29T13:23:32;39.24;18.89
75786;DHT22;64402;44.708;37.644;2023-07-29T13:25:58;39.72;17.68
75786;DHT22;64402;44.708;37.644;2023-07-29T13:28:24;39.91;17.91
75786;DHT22;64402;44.708;37.644;2023-07-29T13:30:50;39.36;18.48
75786;DHT22;64402;44.708;37.644;2023-07-29T13:33:16;39.14;19.57
75786;DHT22;64402;44.708;37.644;2023-07-29T13:35:43;38.50;20.70
75786;DHT22;64402;44.708;37.644;2023-07-29T13:38:09;38.49;20.18
75786;DHT22;64402;44.708;37.644;2023-07-29T13:40:36;38.54;21.17
75786;DHT22;64402;44.708;37.644;2023-07-29T13:43:03;38.97;19.58
75786;DHT22;64402;44.708;37.644;2023-07-29T13:45:29;38.62;20.23
75786;DHT22;64402;44.708;37.644;2023-07-29T13:47:55;37.93;21.78
75786;DHT22;64402;44.708;37.644;2023-07-29T13:50:21;37.38;22.46
75786;DHT22;64402;44.708;37.644;2023-07-29T13:52:48;37.00;24.08
75786;DHT22;64402;44.708;37.644;2023-07-29T13:55:14;36.98;23.60
75786;DHT22;64402;44.708;37.644;2023-07-29T13:57:40;37.35;23.34
75786;DHT22;64402;44.708;37.644;2023-07-29T14:00:07;37.27;23.43
75786;DHT22;64402;44.708;37.644;2023-07-29T14:02:37;37.69;22.82
75786;DHT22;64402;44.708;37.644;2023-07-29T14:05:03;37.40;22.86
75786;DHT22;64402;44.708;37.644;2023-07-29T14:07:29;37.28;23.56
75786;DHT22;64402;44.708;37.644;2023-07-29T14:09:56;37.20;23.09
75786;DHT22;64402;44.708;37.644;2023-07-29T14:12:22;37.18;23.57
75786;DHT22;64402;44.708;37.644;2023-07-29T14:14:48;37.65;22.93
75786;DHT22;64402;44.708;37.644;2023-07-29T14:17:14;37.96;22.59
75786;DHT22;64402;44.708;37.644;2023-07-29T14:19:40;37.64;23.36
75786;DHT22;64402;44.708;37.644;2023-07-29T14:22:06;37.79;23.24
75786;DHT22;64402;44.708;37.644;2023-07-29T14:24:32;37.70;23.12
75786;DHT22;64402;44.708;37.644;2023-07-29T14:26:59;37.25;23.03
75786;DHT22;64402;44.708;37.644;2023-07-29T14:29:25;36.80;23.85
75786;DHT22;64402;44.708;37.644;2023-07-29T14:31:51;36.53;24.14
75786;DHT22;64402;44.708;37.644;2023-07-29T14:34:17;35.95;24.57
75786;DHT22;64402;44.708;37.644;2023-07-29T14:36:44;36.11;25.23
75786;DHT22;64402;44.708;37.644;2023-07-29T14:39:10;36.90;23.51
75786;DHT22;64402;44.708;37.644;2023-07-29T14:41:36;35.98;25.47
75786;DHT22;64402;44.708;37.644;2023-07-29T14:44:02;36.13;25.17
75786;DHT22;64402;44.708;37.644;2023-07-29T14:46:29;36.46;24.98
75786;DHT22;64402;44.708;37.644;2023-07-29T14:48:56;36.56;24.43
75786;DHT22;64402;44.708;37.644;2023-07-29T14:51:22;35.78;25.30
75786;DHT22;64402;44.708;37.644;2023-07-29T14:53:49;35.27;25.85
75786;DHT22;64402;44.708;37.644;2023-07-29T14:56:15;35.28;26.11
75786;DHT22;64402;44.708;37.644;2023-07-29T14:58:44;35.37;26.07
75786;DHT22;64402;44.708;37.644;2023-07-29T15:01:10;34.97;26.49
75786;DHT22;64402;44.708;37.644;2023-07-29T15:03:36;34.94;26.59
75786;DHT22;64402;44.708;37.644;2023-07-29T15:06:03;34.91;26.86
75786;DHT22;64402;44.708;37.644;2023-07-29T15:08:29;35.00;26.48
75786;DHT22;64402;44.708;37.644;2023-07-29T15:10:55;34.98;27.09
75786;DHT22;64402;44.708;37.644;2023-07-29T15:13:21;34.74;27.58
75786;DHT22;64402;44.708;37.644;2023-07-29T15:15:47;34.45;28.06
75786;DHT22;64402;44.708;37.644;2023-07-29T15:18:16;34.67;27.81
75786;DHT22;64402;44.708;37.644;2023-07-29T15:20:43;34.62;27.36
75786;DHT22;64402;44.708;37.644;2023-07-29T15:23:09;34.08;28.23
75786;DHT22;64402;44.708;37.644;2023-07-29T15:25:36;34.03;28.62
75786;DHT22;64402;44.708;37.644;2023-07-29T15:28:02;34.20;28.87
75786;DHT22;64402;44.708;37.644;2023-07-29T15:30:28;34.03;29.22
75786;DHT22;64402;44.708;37.644;2023-07-29T15:32:55;34.34;28.58
75786;DHT22;64402;44.708;37.644;2023-07-29T15:35:22;34.23;29.04
75786;DHT22;64402;44.708;37.644;2023-07-29T15:37:48;34.44;28.19
75786;DHT22;64402;44.708;37.644;2023-07-29T15:40:14;34.08;29.02